createdAt,value
2022-08-26T00:01:57.887Z,60.37
2022-08-26T00:04:32.119Z,60.28
2022-08-26T00:07:05.333Z,60.87
2022-08-26T00:09:40.129Z,60.73
2022-08-26T00:12:12.780Z,60.69
2022-08-26T00:14:45.144Z,60.75
2022-08-26T00:17:17.156Z,60.84
2022-08-26T00:19:49.189Z,61.56
2022-08-26T00:22:25.363Z,61.97
2022-08-26T00:24:58.328Z,61.89
2022-08-26T00:27:34.004Z,62.28
2022-08-26T00:30:14.358Z,62.29
2022-08-26T00:32:47.246Z,62.12
2022-08-26T00:35:21.533Z,62.10
2022-08-26T00:37:56.737Z,62.75
2022-08-26T00:40:35.595Z,62.75
2022-08-26T00:43:09.429Z,62.78
2022-08-26T00:45:49.729Z,63.02
2022-08-26T00:48:25.347Z,63.57
2022-08-26T00:51:07.557Z,63.82
2022-08-26T00:53:57.884Z,63.71
2022-08-26T00:56:38.871Z,63.75
2022-08-26T00:59:13.971Z,64.08
2022-08-26T01:01:49.495Z,63.70
2022-08-26T01:04:23.973Z,64.14
2022-08-26T01:06:58.211Z,64.21
2022-08-26T01:09:31.166Z,64.19
2022-08-26T01:12:04.302Z,64.30
2022-08-26T01:14:37.466Z,64.40
2022-08-26T01:17:10.006Z,64.58
2022-08-26T01:20:00.277Z,64.65
2022-08-26T01:22:56.219Z,64.95
2022-08-26T01:25:32.846Z,64.75
2022-08-26T01:28:09.465Z,64.75
2022-08-26T01:30:44.289Z,64.52
2022-08-26T01:33:19.878Z,64.95
2022-08-26T01:35:52.450Z,64.73
2022-08-26T01:38:24.714Z,65.42
2022-08-26T01:40:57.369Z,64.81
2022-08-26T01:43:33.266Z,65.58
2022-08-26T01:46:06.839Z,65.89
2022-08-26T01:48:44.945Z,65.91
2022-08-26T01:51:20.830Z,65.73
2022-08-26T01:53:53.265Z,66.07
2022-08-26T01:56:25.552Z,66.25
2022-08-26T01:59:08.071Z,66.30
2022-08-26T02:01:41.551Z,66.71
2022-08-26T02:04:33.544Z,66.49
2022-08-26T02:07:10.015Z,66.23
2022-08-26T02:09:42.945Z,66.25
2022-08-26T02:12:17.722Z,66.66
2022-08-26T02:14:57.447Z,67.01
2022-08-26T02:17:35.562Z,67.55
2022-08-26T02:20:13.237Z,67.29
2022-08-26T02:22:47.894Z,67.64
2022-08-26T02:25:39.622Z,67.56
2022-08-26T02:28:13.237Z,68.25
2022-08-26T02:30:47.277Z,67.96
2022-08-26T02:33:19.721Z,68.10
2022-08-26T02:35:52.059Z,68.10
2022-08-26T02:38:24.125Z,68.06
2022-08-26T02:40:56.434Z,68.18
2022-08-26T02:43:31.697Z,67.64
2022-08-26T02:46:06.058Z,67.64
2022-08-26T02:48:38.437Z,67.64
2022-08-26T02:51:11.641Z,67.64
2022-08-26T02:53:45.323Z,67.98
2022-08-26T02:56:17.383Z,68.21
2022-08-26T02:58:50.358Z,68.45
2022-08-26T03:01:27.712Z,68.96
2022-08-26T03:04:03.170Z,68.79
2022-08-26T03:06:35.749Z,69.48
2022-08-26T03:09:09.631Z,69.43
2022-08-26T03:11:41.745Z,69.94
2022-08-26T03:14:13.824Z,69.82
2022-08-26T03:16:48.431Z,69.99
2022-08-26T03:19:23.386Z,70.48
2022-08-26T03:21:57.857Z,70.34
2022-08-26T03:24:30.608Z,70.72
2022-08-26T03:27:06.014Z,70.50
2022-08-26T03:29:58.572Z,70.97
2022-08-26T03:32:30.748Z,70.91
2022-08-26T03:35:02.802Z,71.48
2022-08-26T03:37:34.792Z,71.40
2022-08-26T03:40:10.554Z,71.37
2022-08-26T03:42:45.439Z,71.42
2022-08-26T03:45:20.174Z,71.65
2022-08-26T03:47:52.594Z,71.14
2022-08-26T03:50:25.646Z,71.51
2022-08-26T03:52:59.058Z,71.77
2022-08-26T03:55:33.292Z,72.40
2022-08-26T03:58:05.349Z,72.61
2022-08-26T04:00:37.516Z,72.51
2022-08-26T04:03:14.740Z,71.87
2022-08-26T04:05:52.449Z,72.31
2022-08-26T04:08:24.856Z,72.03
2022-08-26T04:11:01.328Z,72.93
2022-08-26T04:13:33.754Z,72.83
2022-08-26T04:16:06.146Z,72.26
2022-08-26T04:18:38.337Z,72.05
2022-08-26T04:21:18.773Z,72.44
2022-08-26T04:23:51.377Z,72.51
2022-08-26T04:26:24.455Z,73.25
2022-08-26T04:28:56.452Z,73.38
2022-08-26T04:31:28.577Z,73.38
2022-08-26T04:34:05.052Z,73.52
2022-08-26T04:36:37.895Z,73.49
2022-08-26T04:39:12.396Z,73.88
2022-08-26T04:41:45.077Z,74.04
2022-08-26T04:44:17.973Z,73.77
2022-08-26T04:46:50.003Z,73.76
2022-08-26T04:49:22.265Z,73.59
2022-08-26T04:51:55.029Z,73.86
2022-08-26T04:54:27.875Z,73.75
2022-08-26T04:57:00.490Z,74.23
2022-08-26T04:59:35.969Z,73.84
2022-08-26T05:02:11.974Z,74.16
2022-08-26T05:04:44.028Z,74.34
2022-08-26T05:07:17.708Z,74.63
2022-08-26T05:09:49.750Z,74.10
2022-08-26T05:12:21.978Z,74.33
2022-08-26T05:14:54.149Z,74.39
2022-08-26T05:17:29.884Z,74.50
2022-08-26T05:20:02.034Z,74.12
2022-08-26T05:22:34.065Z,74.51
2022-08-26T05:25:06.967Z,74.48
2022-08-26T05:27:38.998Z,74.44
2022-08-26T05:30:11.712Z,74.67
2022-08-26T05:32:43.929Z,75.00
2022-08-26T05:35:17.460Z,74.53
2022-08-26T05:37:50.012Z,74.51
2022-08-26T05:40:22.516Z,74.34
2022-08-26T05:42:55.694Z,74.41
2022-08-26T05:45:28.102Z,74.50
2022-08-26T05:48:00.099Z,74.03
2022-08-26T05:50:32.157Z,73.53
2022-08-26T05:53:04.611Z,74.25
2022-08-26T05:55:45.533Z,73.56
2022-08-26T05:58:22.624Z,73.31
2022-08-26T06:01:05.237Z,73.43
2022-08-26T06:03:40.380Z,74.01
2022-08-26T06:06:27.589Z,73.79
2022-08-26T06:09:04.614Z,74.13
2022-08-26T06:11:36.951Z,73.66
2022-08-26T06:14:09.554Z,73.58
2022-08-26T06:16:45.404Z,73.25
2022-08-26T06:19:17.626Z,72.92
2022-08-26T06:21:54.666Z,73.03
2022-08-26T06:24:45.899Z,72.52
2022-08-26T06:27:18.314Z,72.24
2022-08-26T06:29:51.669Z,72.73
2022-08-26T06:32:24.470Z,72.17
2022-08-26T06:34:56.801Z,71.47
2022-08-26T06:37:29.599Z,71.43
2022-08-26T06:40:01.737Z,71.45
2022-08-26T06:42:36.107Z,71.38
2022-08-26T06:45:08.702Z,71.45
2022-08-26T06:47:40.685Z,70.98
2022-08-26T06:50:12.910Z,71.19
2022-08-26T06:52:45.151Z,70.47
2022-08-26T06:55:17.219Z,70.63
2022-08-26T06:57:50.559Z,70.87
2022-08-26T07:00:22.712Z,70.56
2022-08-26T07:02:54.844Z,70.46
2022-08-26T07:05:27.058Z,70.12
2022-08-26T07:07:59.421Z,69.52
2022-08-26T07:10:32.023Z,68.90
2022-08-26T07:13:04.500Z,68.90
2022-08-26T07:15:42.771Z,68.35
2022-08-26T07:18:15.196Z,68.47
2022-08-26T07:20:47.212Z,67.97
2022-08-26T07:23:19.469Z,67.31
2022-08-26T07:25:51.470Z,67.24
2022-08-26T07:28:24.872Z,66.62
2022-08-26T07:30:58.551Z,66.31
2022-08-26T07:33:31.506Z,65.48
2022-08-26T07:36:04.207Z,63.98
2022-08-26T07:38:38.790Z,64.42
2022-08-26T07:41:13.358Z,63.73
2022-08-26T07:43:45.993Z,63.04
2022-08-26T07:46:29.961Z,61.39
2022-08-26T07:49:02.392Z,60.67
2022-08-26T07:51:35.764Z,58.05
2022-08-26T07:54:08.866Z,57.88
2022-08-26T07:56:41.143Z,57.46
2022-08-26T07:59:18.495Z,55.54
2022-08-26T08:01:51.431Z,55.57
2022-08-26T08:04:26.607Z,54.21
2022-08-26T08:06:58.959Z,53.65
2022-08-26T08:09:31.067Z,53.20
2022-08-26T08:12:04.626Z,52.68
2022-08-26T08:14:37.287Z,50.82
2022-08-26T08:17:09.677Z,50.97
2022-08-26T08:19:42.291Z,51.27
2022-08-26T08:22:17.600Z,50.91
2022-08-26T08:24:53.028Z,49.09
2022-08-26T08:27:25.978Z,48.20
2022-08-26T08:29:58.131Z,47.39
2022-08-26T08:32:30.314Z,47.79
2022-08-26T08:35:02.923Z,47.83
2022-08-26T08:37:44.093Z,48.12
2022-08-26T08:40:18.491Z,47.54
2022-08-26T08:43:39.487Z,48.06
2022-08-26T08:46:15.454Z,47.91
2022-08-26T08:48:54.677Z,48.60
2022-08-26T08:51:48.312Z,47.41
2022-08-26T08:54:21.994Z,46.21
2022-08-26T08:57:13.176Z,44.30
2022-08-26T09:00:03.771Z,43.57
2022-08-26T09:02:48.057Z,43.14
2022-08-26T09:05:30.024Z,41.78
2022-08-26T09:08:11.135Z,40.10
2022-08-26T09:11:00.620Z,40.83
2022-08-26T09:13:32.674Z,40.40
2022-08-26T09:16:14.368Z,39.18
2022-08-26T09:19:19.002Z,37.80
2022-08-26T09:22:00.352Z,36.66
2022-08-26T09:24:41.282Z,36.99
2022-08-26T09:27:44.444Z,37.18
2022-08-26T09:30:33.067Z,36.88
2022-08-26T09:33:10.150Z,35.35
2022-08-26T09:35:47.446Z,37.10
2022-08-26T09:38:30.585Z,37.18
2022-08-26T09:41:08.394Z,36.96
2022-08-26T09:43:40.875Z,37.12
2022-08-26T09:46:20.532Z,38.08
2022-08-26T09:48:53.324Z,37.69
2022-08-26T09:51:32.019Z,37.58
2022-08-26T09:54:05.706Z,36.61
2022-08-26T09:56:40.314Z,37.72
2022-08-26T09:59:12.572Z,38.14
2022-08-26T10:01:45.210Z,37.98
2022-08-26T10:04:23.257Z,37.81
2022-08-26T10:07:03.274Z,38.07
2022-08-26T10:09:43.154Z,38.35
2022-08-26T10:12:21.953Z,38.78
2022-08-26T10:15:00.557Z,39.64
2022-08-26T10:17:39.425Z,39.14
2022-08-26T10:20:23.847Z,38.83
2022-08-26T10:23:17.370Z,39.68
2022-08-26T10:26:05.849Z,38.69
2022-08-26T10:28:53.034Z,37.81
2022-08-26T10:31:40.223Z,36.50
2022-08-26T10:34:14.195Z,34.15
2022-08-26T10:37:14.932Z,34.11
2022-08-26T10:40:11.973Z,32.92
2022-08-26T10:43:11.322Z,33.25
2022-08-26T10:45:51.508Z,33.29
2022-08-26T10:48:49.103Z,32.21
2022-08-26T10:51:35.629Z,33.39
2022-08-26T10:54:13.956Z,30.46
2022-08-26T10:57:03.844Z,31.03
2022-08-26T10:59:56.760Z,30.41
2022-08-26T11:02:41.042Z,28.84
2022-08-26T11:05:25.349Z,27.31
2022-08-26T11:08:19.517Z,25.89
2022-08-26T11:10:58.023Z,26.15
2022-08-26T11:14:01.285Z,26.21
2022-08-26T11:16:35.070Z,25.16
2022-08-26T11:19:10.849Z,25.58
2022-08-26T11:22:02.849Z,27.65
2022-08-26T11:24:53.392Z,27.36
2022-08-26T11:27:37.499Z,29.22
2022-08-26T11:30:13.190Z,28.66
2022-08-26T11:32:58.200Z,29.98
2022-08-26T11:35:47.703Z,29.86
2022-08-26T11:38:29.156Z,29.89
2022-08-26T11:41:16.625Z,30.68
2022-08-26T11:43:52.267Z,30.09
2022-08-26T11:46:31.393Z,29.03
2022-08-26T11:49:07.413Z,27.72
2022-08-26T11:51:40.927Z,26.49
2022-08-26T11:54:35.203Z,25.79
2022-08-26T11:57:12.679Z,25.42
2022-08-26T11:59:44.843Z,24.86
2022-08-26T12:02:18.189Z,25.39
2022-08-26T12:04:53.861Z,24.66
2022-08-26T12:07:29.059Z,27.34
2022-08-26T12:10:04.543Z,29.03
2022-08-26T12:12:39.510Z,30.23
2022-08-26T12:15:20.082Z,32.13
2022-08-26T12:17:54.592Z,33.16
2022-08-26T12:20:49.009Z,33.48
2022-08-26T12:23:47.919Z,34.43
2022-08-26T12:26:35.871Z,34.93
2022-08-26T12:29:27.146Z,35.00
2022-08-26T12:32:14.899Z,35.93
2022-08-26T12:34:49.216Z,37.02
2022-08-26T12:37:21.534Z,37.92
2022-08-26T12:39:54.279Z,39.00
2022-08-26T12:42:42.539Z,39.76
2022-08-26T12:45:56.307Z,39.85
2022-08-26T12:48:36.128Z,38.74
2022-08-26T12:51:15.809Z,36.68
2022-08-26T12:53:47.800Z,36.60
2022-08-26T12:56:41.235Z,38.43
2022-08-26T12:59:25.815Z,40.11
2022-08-26T13:01:58.054Z,41.29
2022-08-26T13:04:44.193Z,43.32
2022-08-26T13:07:21.676Z,44.79
2022-08-26T13:09:57.708Z,45.55
2022-08-26T13:12:37.605Z,45.51
2022-08-26T13:15:09.916Z,42.19
2022-08-26T13:17:42.009Z,39.77
2022-08-26T13:20:14.108Z,39.50
2022-08-26T13:22:46.171Z,41.18
2022-08-26T13:25:30.480Z,43.58
2022-08-26T13:28:02.733Z,45.16
2022-08-26T13:30:35.200Z,46.94
2022-08-26T13:33:08.865Z,47.35
2022-08-26T13:35:44.750Z,50.14
2022-08-26T13:38:33.339Z,51.82
2022-08-26T13:41:06.396Z,55.13
2022-08-26T13:43:38.416Z,57.25
2022-08-26T13:46:10.485Z,58.73
2022-08-26T13:48:42.567Z,59.46
2022-08-26T13:51:18.764Z,60.47
2022-08-26T13:53:51.807Z,62.25
2022-08-26T13:56:27.470Z,62.37
2022-08-26T13:59:01.311Z,62.52
2022-08-26T14:01:36.213Z,61.31
2022-08-26T14:04:08.800Z,60.51
2022-08-26T14:06:40.845Z,59.19
2022-08-26T14:09:12.950Z,60.09
2022-08-26T14:11:52.065Z,64.13
2022-08-26T14:14:26.990Z,68.25
2022-08-26T14:17:00.438Z,69.35
2022-08-26T14:19:32.759Z,73.50
2022-08-26T14:22:04.897Z,75.14
2022-08-26T14:24:36.983Z,77.40
2022-08-26T14:27:08.994Z,77.95
2022-08-26T14:29:41.506Z,75.85
2022-08-26T14:32:23.714Z,79.76
2022-08-26T14:34:56.430Z,80.03
2022-08-26T14:37:28.538Z,78.36
2022-08-26T14:40:00.660Z,80.34
2022-08-26T14:42:35.623Z,81.77
2022-08-26T14:45:11.527Z,83.34
2022-08-26T14:47:48.448Z,83.00
2022-08-26T14:50:25.285Z,81.65
2022-08-26T14:53:16.228Z,83.29
2022-08-26T14:55:51.652Z,83.73
2022-08-26T14:58:24.085Z,84.10
2022-08-26T15:00:57.609Z,85.68
2022-08-26T15:03:30.204Z,86.41
2022-08-26T15:06:02.649Z,84.43
2022-08-26T15:08:36.923Z,82.79
2022-08-26T15:11:09.091Z,82.31
2022-08-26T15:13:41.347Z,80.96
2022-08-26T15:16:14.245Z,82.41
2022-08-26T15:18:46.405Z,81.93
2022-08-26T15:21:23.018Z,82.13
2022-08-26T15:23:55.412Z,84.03
2022-08-26T15:26:29.967Z,80.48
2022-08-26T15:29:04.975Z,81.93
2022-08-26T15:31:38.074Z,80.99
2022-08-26T15:34:16.440Z,80.45
2022-08-26T15:36:49.452Z,80.39
2022-08-26T15:39:21.842Z,78.27
2022-08-26T15:41:56.240Z,79.62
2022-08-26T15:44:28.953Z,80.15
2022-08-26T15:47:01.064Z,79.62
2022-08-26T15:49:33.219Z,80.24
2022-08-26T15:52:05.545Z,79.26
2022-08-26T15:54:37.854Z,80.83
2022-08-26T15:57:12.372Z,79.67
2022-08-26T15:59:45.708Z,81.27
2022-08-26T16:02:17.895Z,80.17
2022-08-26T16:04:49.977Z,80.32
2022-08-26T16:07:22.350Z,81.22
2022-08-26T16:09:55.204Z,81.63
2022-08-26T16:12:27.687Z,83.13
2022-08-26T16:14:59.808Z,84.72
2022-08-26T16:17:31.998Z,83.73
2022-08-26T16:20:05.171Z,85.10
2022-08-26T16:22:37.203Z,85.53
2022-08-26T16:25:09.940Z,84.70
2022-08-26T16:27:42.111Z,85.10
2022-08-26T16:30:15.404Z,85.63
2022-08-26T16:32:48.648Z,86.23
2022-08-26T16:35:20.875Z,86.10
2022-08-26T16:37:53.599Z,86.92
2022-08-26T16:40:26.009Z,86.41
2022-08-26T16:42:58.783Z,87.12
2022-08-26T16:45:31.085Z,85.39
2022-08-26T16:48:05.042Z,84.86
2022-08-26T16:50:40.783Z,83.31
2022-08-26T16:56:05.484Z,79.10
2022-08-26T16:58:37.503Z,77.70
2022-08-26T17:01:09.962Z,77.78
2022-08-26T17:03:42.589Z,77.22
2022-08-26T17:06:15.392Z,76.82
2022-08-26T17:08:48.103Z,77.04
2022-08-26T17:11:20.258Z,75.11
2022-08-26T17:13:52.349Z,75.92
2022-08-26T17:16:27.145Z,73.56
2022-08-26T17:19:00.340Z,73.63
2022-08-26T17:21:35.043Z,74.72
2022-08-26T17:24:07.319Z,72.29
2022-08-26T17:26:39.338Z,73.26
2022-08-26T17:29:12.427Z,72.52
2022-08-26T17:31:44.605Z,72.05
2022-08-26T17:34:17.224Z,72.15
2022-08-26T17:36:50.107Z,72.07
2022-08-26T17:39:22.078Z,72.44
2022-08-26T17:41:54.105Z,72.58
2022-08-26T17:44:26.659Z,71.42
2022-08-26T17:46:58.623Z,72.22
2022-08-26T17:49:30.589Z,72.53
2022-08-26T17:52:03.284Z,71.93
2022-08-26T17:54:35.474Z,73.14
2022-08-26T17:57:10.716Z,72.76
2022-08-26T17:59:42.963Z,70.99
2022-08-26T18:02:16.034Z,71.56
2022-08-26T18:04:48.143Z,71.58
2022-08-26T18:07:20.353Z,71.89
2022-08-26T18:09:52.382Z,71.74
2022-08-26T18:12:24.370Z,71.72
2022-08-26T18:14:59.912Z,71.97
2022-08-26T18:17:32.016Z,72.26
2022-08-26T18:20:04.793Z,71.96
2022-08-26T18:22:36.847Z,72.43
2022-08-26T18:25:09.733Z,72.01
2022-08-26T18:27:42.174Z,70.96
2022-08-26T18:30:20.760Z,70.98
2022-08-26T18:32:53.570Z,70.99
2022-08-26T18:35:28.547Z,70.67
2022-08-26T18:38:10.347Z,71.48
2022-08-26T18:40:45.298Z,71.76
2022-08-26T18:43:17.333Z,72.76
2022-08-26T18:45:49.591Z,72.96
2022-08-26T18:48:23.207Z,72.53
2022-08-26T18:50:55.431Z,73.97
2022-08-26T18:53:29.487Z,73.85
2022-08-26T18:56:01.744Z,73.69
2022-08-26T18:58:33.778Z,73.22
2022-08-26T19:01:06.294Z,73.27
2022-08-26T19:03:38.385Z,73.71
2022-08-26T19:06:18.696Z,74.06
2022-08-26T19:08:50.884Z,74.00
2022-08-26T19:11:32.624Z,74.50
2022-08-26T19:14:13.765Z,74.70
2022-08-26T19:16:48.747Z,74.75
2022-08-26T19:19:24.167Z,74.83
2022-08-26T19:21:56.200Z,74.41
2022-08-26T19:24:28.747Z,74.80
2022-08-26T19:27:02.251Z,75.31
2022-08-26T19:29:36.116Z,75.76
2022-08-26T19:32:08.707Z,74.79
2022-08-26T19:34:40.786Z,75.10
2022-08-26T19:37:12.769Z,75.28
2022-08-26T19:39:44.860Z,74.55
2022-08-26T19:42:17.092Z,75.41
2022-08-26T19:45:07.372Z,75.30
2022-08-26T19:47:53.591Z,74.97
2022-08-26T19:50:29.664Z,75.54
2022-08-26T19:53:04.186Z,75.22
2022-08-26T19:55:36.209Z,74.98
2022-08-26T19:58:08.393Z,75.19
2022-08-26T20:00:42.474Z,75.20
2022-08-26T20:03:15.823Z,75.27
2022-08-26T20:05:48.956Z,74.90
2022-08-26T20:08:22.641Z,74.88
2022-08-26T20:10:55.804Z,75.06
2022-08-26T20:13:28.372Z,74.91
2022-08-26T20:16:00.350Z,74.60
2022-08-26T20:18:50.936Z,74.84
2022-08-26T20:21:29.632Z,74.55
2022-08-26T20:24:09.477Z,74.85
2022-08-26T20:26:44.226Z,74.75
2022-08-26T20:29:18.448Z,75.26
2022-08-26T20:31:52.699Z,75.97
2022-08-26T20:34:26.384Z,76.42
2022-08-26T20:36:59.538Z,76.15
2022-08-26T20:39:31.934Z,76.03
2022-08-26T20:42:04.641Z,76.10
2022-08-26T20:44:37.811Z,77.17
2022-08-26T20:47:15.320Z,76.14
2022-08-26T20:49:47.382Z,76.36
2022-08-26T20:52:24.910Z,76.20
2022-08-26T20:54:57.142Z,76.10
2022-08-26T20:57:29.193Z,75.92
2022-08-26T21:00:01.336Z,76.87
2022-08-26T21:02:34.173Z,76.34
2022-08-26T21:05:07.739Z,77.31
2022-08-26T21:07:39.822Z,77.38
2022-08-26T21:10:12.881Z,76.98
2022-08-26T21:12:45.132Z,77.17
2022-08-26T21:15:17.251Z,76.73
2022-08-26T21:17:49.352Z,77.36
2022-08-26T21:20:21.649Z,77.05
2022-08-26T21:22:53.697Z,77.45
2022-08-26T21:25:26.187Z,76.76
2022-08-26T21:27:58.254Z,76.71
2022-08-26T21:30:30.312Z,76.74
2022-08-26T21:33:02.346Z,76.68
2022-08-26T21:35:34.832Z,75.90
2022-08-26T21:38:06.921Z,75.61
2022-08-26T21:40:38.981Z,75.98
2022-08-26T21:43:16.198Z,75.77
2022-08-26T21:46:14.568Z,76.81
2022-08-26T21:48:54.752Z,76.27
2022-08-26T21:51:30.814Z,76.16
2022-08-26T21:54:10.526Z,76.56
2022-08-26T21:56:46.780Z,76.11
2022-08-26T21:59:19.635Z,76.00
2022-08-26T22:01:51.734Z,76.37
2022-08-26T22:04:24.383Z,75.45
2022-08-26T22:06:59.587Z,75.85
2022-08-26T22:09:32.437Z,76.27
2022-08-26T22:12:05.238Z,76.29
2022-08-26T22:14:39.341Z,76.29
2022-08-26T22:17:12.035Z,75.54
2022-08-26T22:19:45.717Z,76.16
2022-08-26T22:22:18.563Z,75.83
2022-08-26T22:24:50.739Z,75.89
2022-08-26T22:27:23.329Z,75.87
2022-08-26T22:29:55.422Z,75.82
2022-08-26T22:32:27.508Z,75.68
2022-08-26T22:34:59.539Z,75.68
2022-08-26T22:37:31.586Z,75.75
2022-08-26T22:40:06.156Z,75.79
2022-08-26T22:42:39.500Z,76.22
2022-08-26T22:45:12.322Z,76.08
2022-08-26T22:47:44.356Z,74.95
2022-08-26T22:50:16.392Z,74.76
2022-08-26T22:52:48.376Z,74.65
2022-08-26T22:55:20.426Z,74.26
2022-08-26T22:57:52.869Z,74.09
2022-08-26T23:00:31.793Z,73.72
2022-08-26T23:03:04.992Z,73.91
2022-08-26T23:05:39.498Z,73.35
2022-08-26T23:08:12.782Z,73.57
2022-08-26T23:10:47.622Z,73.45
2022-08-26T23:13:20.199Z,73.71
2022-08-26T23:16:02.344Z,73.17
2022-08-26T23:18:34.435Z,73.83
2022-08-26T23:21:08.150Z,73.50
2022-08-26T23:23:40.161Z,72.88
2022-08-26T23:26:16.675Z,73.28
2022-08-26T23:28:49.602Z,73.83
2022-08-26T23:31:21.805Z,73.15
2022-08-26T23:34:12.203Z,73.53
2022-08-26T23:36:44.375Z,73.05
2022-08-26T23:39:18.669Z,72.13
2022-08-26T23:41:50.683Z,72.35
2022-08-26T23:44:22.696Z,73.10
2022-08-26T23:46:55.574Z,72.75
2022-08-26T23:49:28.258Z,73.15
2022-08-26T23:52:19.194Z,72.61
2022-08-26T23:54:52.934Z,73.34
2022-08-26T23:57:26.356Z,73.86
2022-08-26T23:59:58.365Z,73.63
